LTN weather

London Luton Airport
London, England, United Kingdom

Public forecast

Using degrees Celsius for public forecast. Weather courtesy of forecast.io.

Current aviation weather report (METAR) for London Luton Airport

Retrieved 2019/11/15 01:20 UTC (7 minutes ago):

EGGW 150120Z AUTO 01007KT 0150 R08/0400 FG VV/// 03/03 Q1004

Aviation forecast (TAF) for London Luton Airport

Retrieved 2019-11-15 00:00 UTC (1 hour ago):

TAF EGGW 142301Z 1500/1524 01007KT 0300 FG VV/// BECMG 1500/1503 9999 NSW FEW004 TEMPO 1503/1506 3000 BR BKN002 PROB40 TEMPO 1503/1506 0300 FG BKN001 TEMPO 1506/1510 6000 SHRA BKN003 TEMPO 1511/1519 02018G28KT BECMG 1515/1518 BKN010 TEMPO 1516/1524 6000 RA BKN006